Private Wetterstation Sandau
Wetterdaten: Dienstag, 18.09.2012
Datum Zeit Temp. A. Feuchte A. Luftdruck Regen Wind Richtung Richtung Taupunkt Windchill
18.09.2012 00:01 12,9 C 83 % 1014,1 hPa 0,0 l/m 0,0 km/h (0 Bft) S-SO 157 10,1 C 12,9 C
18.09.2012 00:06 12,8 C 83 % 1014,1 hPa 0,0 l/m 0,0 km/h (0 Bft) S-SO 157 10,0 C 12,8 C
18.09.2012 00:11 12,8 C 83 % 1013,9 hPa 0,0 l/m 0,0 km/h (0 Bft) S-SO 157 10,0 C 12,8 C
18.09.2012 00:16 12,6 C 83 % 1013,9 hPa 0,0 l/m 0,0 km/h (0 Bft) S-SO 157 9,8 C 12,6 C
18.09.2012 00:21 12,6 C 84 % 1014,0 hPa 0,0 l/m 0,0 km/h (0 Bft) S-SO 157 10,0 C 12,6 C
18.09.2012 00:26 12,5 C 84 % 1014,0 hPa 0,0 l/m 0,0 km/h (0 Bft) S-SO 157 9,9 C 12,5 C
18.09.2012 00:31 12,3 C 83 % 1014,2 hPa 0,0 l/m 0,0 km/h (0 Bft) S-SO 157 9,5 C 12,3 C
18.09.2012 00:36 12,2 C 83 % 1014,1 hPa 0,0 l/m 0,0 km/h (0 Bft) S-SO 157 9,4 C 12,2 C
18.09.2012 00:41 12,1 C 84 % 1014,1 hPa 0,0 l/m 0,0 km/h (0 Bft) S-SO 157 9,5 C 12,1 C
18.09.2012 00:46 12,1 C 84 % 1014,0 hPa 0,0 l/m 1,1 km/h (1 Bft) S-SO 157 9,5 C 12,1 C
18.09.2012 00:51 12,1 C 84 % 1013,9 hPa 0,0 l/m 0,0 km/h (0 Bft) S-SO 157 9,5 C 12,1 C
18.09.2012 00:56 12,0 C 84 % 1013,9 hPa 0,0 l/m 1,4 km/h (1 Bft) S-SO 157 9,4 C 12,0 C
18.09.2012 01:01 12,1 C 85 % 1013,8 hPa 0,0 l/m 3,2 km/h (1 Bft) SO 135 9,7 C 12,1 C
18.09.2012 01:06 12,1 C 85 % 1013,6 hPa 0,0 l/m 3,6 km/h (1 Bft) SO 135 9,7 C 12,1 C
18.09.2012 01:11 12,1 C 86 % 1013,6 hPa 0,0 l/m 2,5 km/h (1 Bft) S-SO 157 9,8 C 12,1 C
18.09.2012 01:16 12,2 C 86 % 1013,5 hPa 0,0 l/m 1,8 km/h (1 Bft) S-SO 157 9,9 C 12,2 C
18.09.2012 01:21 12,2 C 86 % 1013,5 hPa 0,0 l/m 1,4 km/h (1 Bft) SO 135 9,9 C 12,2 C
18.09.2012 01:26 12,2 C 86 % 1013,4 hPa 0,0 l/m 0,0 km/h (0 Bft) SO 135 9,9 C 12,2 C
18.09.2012 01:31 12,1 C 86 % 1013,4 hPa 0,0 l/m 0,0 km/h (0 Bft) SO 135 9,8 C 12,1 C
18.09.2012 01:36 12,1 C 86 % 1013,3 hPa 0,0 l/m 0,0 km/h (0 Bft) SO 135 9,8 C 12,1 C
18.09.2012 01:41 12,0 C 86 % 1013,3 hPa 0,0 l/m 0,0 km/h (0 Bft) SO 135 9,7 C 12,0 C
18.09.2012 01:46 11,9 C 86 % 1013,2 hPa 0,0 l/m 1,4 km/h (1 Bft) SO 135 9,6 C 11,9 C
18.09.2012 01:51 11,9 C 87 % 1013,3 hPa 0,0 l/m 1,4 km/h (1 Bft) SO 135 9,8 C 11,9 C
18.09.2012 01:56 11,9 C 87 % 1013,2 hPa 0,0 l/m 2,2 km/h (1 Bft) SO 135 9,8 C 11,9 C
18.09.2012 02:01 11,9 C 87 % 1013,2 hPa 0,0 l/m 0,0 km/h (0 Bft) SO 135 9,8 C 11,9 C
18.09.2012 02:06 11,8 C 87 % 1013,2 hPa 0,0 l/m 0,0 km/h (0 Bft) S-SO 157 9,7 C 11,8 C
18.09.2012 02:11 11,8 C 86 % 1013,1 hPa 0,0 l/m 0,0 km/h (0 Bft) S-SO 157 9,5 C 11,8 C
18.09.2012 02:16 11,6 C 86 % 1013,1 hPa 0,0 l/m 0,0 km/h (0 Bft) SO 135 9,3 C 11,6 C
18.09.2012 02:21 11,6 C 86 % 1013,0 hPa 0,0 l/m 2,9 km/h (1 Bft) S-SO 157 9,3 C 11,6 C
18.09.2012 02:26 11,6 C 86 % 1013,0 hPa 0,0 l/m 0,0 km/h (0 Bft) S-SO 157 9,3 C 11,6 C
18.09.2012 02:31 11,6 C 87 % 1013,0 hPa 0,0 l/m 2,5 km/h (1 Bft) SO 135 9,5 C 11,6 C
18.09.2012 02:36 11,6 C 87 % 1013,0 hPa 0,0 l/m 2,9 km/h (1 Bft) SO 135 9,5 C 11,6 C
18.09.2012 02:41 11,6 C 87 % 1012,9 hPa 0,0 l/m 2,9 km/h (1 Bft) S-SO 157 9,5 C 11,6 C
18.09.2012 02:46 11,6 C 87 % 1012,8 hPa 0,0 l/m 0,0 km/h (0 Bft) S-SO 157 9,5 C 11,6 C
18.09.2012 02:51 11,5 C 87 % 1012,8 hPa 0,0 l/m 0,0 km/h (0 Bft) S-SO 157 9,4 C 11,5 C
18.09.2012 02:56 11,5 C 87 % 1012,8 hPa 0,0 l/m 0,0 km/h (0 Bft) S-SO 157 9,4 C 11,5 C
18.09.2012 03:01 11,5 C 87 % 1012,8 hPa 0,0 l/m 0,0 km/h (0 Bft) S-SO 157 9,4 C 11,5 C
18.09.2012 03:06 11,4 C 87 % 1012,7 hPa 0,0 l/m 0,0 km/h (0 Bft) S-SO 157 9,3 C 11,4 C
18.09.2012 03:11 11,4 C 87 % 1012,6 hPa 0,0 l/m 0,0 km/h (0 Bft) S-SO 157 9,3 C 11,4 C
18.09.2012 03:16 11,4 C 87 % 1012,6 hPa 0,0 l/m 0,0 km/h (0 Bft) S-SO 157 9,3 C 11,4 C
18.09.2012 03:21 11,4 C 88 % 1012,5 hPa 0,0 l/m 2,9 km/h (1 Bft) SO 135 9,5 C 11,4 C
18.09.2012 03:26 11,4 C 88 % 1012,4 hPa 0,0 l/m 1,4 km/h (1 Bft) SO 135 9,5 C 11,4 C
18.09.2012 03:31 11,4 C 88 % 1012,3 hPa 0,0 l/m 2,5 km/h (1 Bft) SO 135 9,5 C 11,4 C
18.09.2012 03:36 11,4 C 88 % 1012,4 hPa 0,0 l/m 1,8 km/h (1 Bft) SO 135 9,5 C 11,4 C
18.09.2012 03:41 11,4 C 88 % 1012,3 hPa 0,0 l/m 1,8 km/h (1 Bft) SO 135 9,5 C 11,4 C
18.09.2012 03:46 11,5 C 88 % 1012,4 hPa 0,0 l/m 0,0 km/h (0 Bft) SO 135 9,6 C 11,5 C
18.09.2012 03:51 11,5 C 88 % 1012,4 hPa 0,0 l/m 0,0 km/h (0 Bft) SO 135 9,6 C 11,5 C
18.09.2012 03:56 11,6 C 88 % 1012,4 hPa 0,0 l/m 0,0 km/h (0 Bft) SO 135 9,7 C 11,6 C
18.09.2012 04:01 11,6 C 88 % 1012,3 hPa 0,0 l/m 0,0 km/h (0 Bft) SO 135 9,7 C 11,6 C
18.09.2012 04:06 11,6 C 88 % 1012,2 hPa 0,0 l/m 0,0 km/h (0 Bft) SO 135 9,7 C 11,6 C
18.09.2012 04:11 11,7 C 88 % 1012,1 hPa 0,0 l/m 0,0 km/h (0 Bft) SO 135 9,8 C 11,7 C
18.09.2012 04:16 11,8 C 88 % 1012,1 hPa 0,0 l/m 0,0 km/h (0 Bft) SO 135 9,9 C 11,8 C
18.09.2012 04:21 11,8 C 88 % 1012,2 hPa 0,0 l/m 0,0 km/h (0 Bft) SO 135 9,9 C 11,8 C
18.09.2012 04:26 11,8 C 88 % 1012,1 hPa 0,0 l/m 0,0 km/h (0 Bft) SO 135 9,9 C 11,8 C
18.09.2012 04:31 11,8 C 88 % 1012,0 hPa 0,0 l/m 0,0 km/h (0 Bft) O-SO 112 9,9 C 11,8 C
18.09.2012 04:36 11,6 C 87 % 1012,0 hPa 0,0 l/m 0,0 km/h (0 Bft) S-SO 157 9,5 C 11,6 C
18.09.2012 04:41 11,6 C 87 % 1011,9 hPa 0,0 l/m 0,0 km/h (0 Bft) S-SO 157 9,5 C 11,6 C
18.09.2012 04:46 11,6 C 87 % 1012,0 hPa 0,0 l/m 1,4 km/h (1 Bft) O-SO 112 9,5 C 11,6 C
18.09.2012 04:51 11,5 C 87 % 1011,9 hPa 0,0 l/m 2,5 km/h (1 Bft) SO 135 9,4 C 11,5 C
18.09.2012 04:56 11,4 C 87 % 1011,8 hPa 0,0 l/m 0,0 km/h (0 Bft) SO 135 9,3 C 11,4 C
18.09.2012 05:01 11,4 C 87 % 1011,7 hPa 0,0 l/m 2,5 km/h (1 Bft) SO 135 9,3 C 11,4 C
18.09.2012 05:06 11,4 C 87 % 1011,7 hPa 0,0 l/m 0,0 km/h (0 Bft) SO 135 9,3 C 11,4 C
18.09.2012 05:11 11,4 C 88 % 1011,7 hPa 0,0 l/m 2,2 km/h (1 Bft) SO 135 9,5 C 11,4 C
18.09.2012 05:16 11,3 C 88 % 1011,7 hPa 0,0 l/m 0,0 km/h (0 Bft) SO 135 9,4 C 11,3 C
18.09.2012 05:21 11,3 C 87 % 1011,5 hPa 0,0 l/m 0,0 km/h (0 Bft) SO 135 9,2 C 11,3 C
18.09.2012 05:26 11,3 C 87 % 1011,4 hPa 0,0 l/m 1,8 km/h (1 Bft) SO 135 9,2 C 11,3 C
18.09.2012 05:31 11,2 C 87 % 1011,3 hPa 0,0 l/m 0,0 km/h (0 Bft) SO 135 9,1 C 11,2 C
18.09.2012 05:36 11,2 C 88 % 1011,3 hPa 0,0 l/m 0,0 km/h (0 Bft) SO 135 9,3 C 11,2 C
18.09.2012 05:41 11,2 C 88 % 1011,1 hPa 0,0 l/m 1,8 km/h (1 Bft) S-SO 157 9,3 C 11,2 C
18.09.2012 05:46 11,2 C 88 % 1011,1 hPa 0,0 l/m 2,2 km/h (1 Bft) SO 135 9,3 C 11,2 C
18.09.2012 05:51 11,1 C 88 % 1011,1 hPa 0,0 l/m 0,0 km/h (0 Bft) SO 135 9,2 C 11,1 C
18.09.2012 05:56 11,1 C 88 % 1011,0 hPa 0,0 l/m 7,2 km/h (2 Bft) S-SW 202 9,2 C 11,1 C
18.09.2012 06:01 11,1 C 88 % 1011,2 hPa 0,0 l/m 3,6 km/h (1 Bft) S-SO 157 9,2 C 11,1 C
18.09.2012 06:06 11,3 C 88 % 1011,1 hPa 0,0 l/m 9,4 km/h (2 Bft) S 180 9,4 C 11,3 C
18.09.2012 06:11 11,4 C 89 % 1011,1 hPa 0,0 l/m 5,0 km/h (1 Bft) S-SO 157 9,7 C 11,4 C
18.09.2012 06:16 11,6 C 89 % 1011,0 hPa 0,0 l/m 4,7 km/h (1 Bft) S-SO 157 9,8 C 11,6 C
18.09.2012 06:21 11,8 C 89 % 1011,0 hPa 0,0 l/m 3,2 km/h (1 Bft) S-SO 157 10,0 C 11,8 C
18.09.2012 06:26 11,9 C 89 % 1010,9 hPa 0,0 l/m 2,2 km/h (1 Bft) S-SO 157 10,1 C 11,9 C
18.09.2012 06:31 12,1 C 89 % 1011,0 hPa 0,0 l/m 2,2 km/h (1 Bft) S-SO 157 10,3 C 12,1 C
18.09.2012 06:36 12,1 C 89 % 1011,0 hPa 0,0 l/m 5,8 km/h (2 Bft) SW 225 10,3 C 12,1 C
18.09.2012 06:41 12,3 C 89 % 1010,9 hPa 0,0 l/m 6,1 km/h (2 Bft) S 180 10,5 C 12,3 C
18.09.2012 06:46 12,4 C 89 % 1010,9 hPa 0,0 l/m 4,3 km/h (1 Bft) S-SO 157 10,6 C 12,4 C
18.09.2012 06:51 12,5 C 89 % 1010,8 hPa 0,0 l/m 0,0 km/h (0 Bft) S 180 10,7 C 12,5 C
18.09.2012 06:56 12,6 C 89 % 1010,7 hPa 0,0 l/m 5,0 km/h (1 Bft) S 180 10,8 C 12,6 C
18.09.2012 07:01 12,6 C 88 % 1010,8 hPa 0,0 l/m 0,0 km/h (0 Bft) SO 135 10,7 C 12,6 C
18.09.2012 07:06 12,8 C 88 % 1010,7 hPa 0,0 l/m 4,3 km/h (1 Bft) S-SO 157 10,9 C 12,8 C
18.09.2012 07:11 12,8 C 88 % 1010,8 hPa 0,0 l/m 2,9 km/h (1 Bft) S-SW 202 10,9 C 12,8 C
18.09.2012 07:16 12,8 C 88 % 1010,8 hPa 0,0 l/m 4,0 km/h (1 Bft) S-SW 202 10,9 C 12,8 C
18.09.2012 07:21 12,8 C 88 % 1010,8 hPa 0,0 l/m 4,3 km/h (1 Bft) S 180 10,9 C 12,8 C
18.09.2012 07:26 12,9 C 88 % 1010,9 hPa 0,0 l/m 6,1 km/h (2 Bft) S-SW 202 11,0 C 12,9 C
18.09.2012 07:31 12,9 C 88 % 1010,9 hPa 0,0 l/m 1,4 km/h (1 Bft) SW 225 11,0 C 12,9 C
18.09.2012 07:36 12,9 C 88 % 1010,9 hPa 0,0 l/m 1,8 km/h (1 Bft) S-SW 202 11,0 C 12,9 C
18.09.2012 07:41 12,9 C 87 % 1010,9 hPa 0,0 l/m 4,7 km/h (1 Bft) SW 225 10,8 C 12,9 C
18.09.2012 07:46 12,9 C 87 % 1010,8 hPa 0,0 l/m 3,6 km/h (1 Bft) S 180 10,8 C 12,9 C
18.09.2012 07:51 13,0 C 87 % 1010,9 hPa 0,0 l/m 0,0 km/h (0 Bft) SW 225 10,9 C 13,0 C
18.09.2012 07:56 12,9 C 87 % 1010,9 hPa 0,0 l/m 2,5 km/h (1 Bft) S-SW 202 10,8 C 12,9 C
18.09.2012 08:01 13,2 C 87 % 1010,9 hPa 0,0 l/m 3,2 km/h (1 Bft) SW 225 11,1 C 13,2 C
18.09.2012 08:06 13,3 C 87 % 1010,9 hPa 0,0 l/m 4,7 km/h (1 Bft) W-SW 247 11,2 C 13,3 C
18.09.2012 08:11 13,5 C 87 % 1010,8 hPa 0,0 l/m 4,0 km/h (1 Bft) SW 225 11,4 C 13,5 C
18.09.2012 08:16 13,6 C 87 % 1010,9 hPa 0,0 l/m 5,4 km/h (1 Bft) S-SW 202 11,5 C 13,6 C
18.09.2012 08:21 13,8 C 87 % 1010,9 hPa 0,0 l/m 3,6 km/h (1 Bft) S 180 11,7 C 13,8 C
18.09.2012 08:26 13,9 C 86 % 1010,9 hPa 0,0 l/m 3,6 km/h (1 Bft) W-SW 247 11,6 C 13,9 C
18.09.2012 08:31 14,1 C 86 % 1010,9 hPa 0,0 l/m 3,2 km/h (1 Bft) SW 225 11,8 C 14,1 C
18.09.2012 08:36 14,4 C 86 % 1010,8 hPa 0,0 l/m 7,6 km/h (2 Bft) W-SW 247 12,1 C 14,4 C
18.09.2012 08:41 14,7 C 85 % 1010,8 hPa 0,0 l/m 3,6 km/h (1 Bft) S-SW 202 12,2 C 14,7 C
18.09.2012 08:46 14,9 C 85 % 1010,8 hPa 0,0 l/m 3,2 km/h (1 Bft) W-SW 247 12,4 C 14,9 C
18.09.2012 08:51 15,0 C 83 % 1010,9 hPa 0,0 l/m 9,4 km/h (2 Bft) W-SW 247 12,1 C 15,0 C
18.09.2012 08:56 15,3 C 83 % 1010,9 hPa 0,0 l/m 4,0 km/h (1 Bft) SW 225 12,4 C 15,3 C
18.09.2012 09:01 15,4 C 82 % 1010,8 hPa 0,0 l/m 5,8 km/h (2 Bft) SW 225 12,3 C 15,4 C
18.09.2012 09:06 15,6 C 82 % 1010,7 hPa 0,0 l/m 5,0 km/h (1 Bft) SW 225 12,5 C 15,6 C
18.09.2012 09:11 15,8 C 81 % 1010,7 hPa 0,0 l/m 4,0 km/h (1 Bft) W-SW 247 12,5 C 15,8 C
18.09.2012 09:16 15,9 C 81 % 1010,8 hPa 0,0 l/m 3,6 km/h (1 Bft) W-SW 247 12,6 C 15,9 C
18.09.2012 09:21 16,2 C 81 % 1010,9 hPa 0,0 l/m 15,1 km/h (3 Bft) W-SW 247 12,9 C 16,2 C
18.09.2012 09:26 16,4 C 80 % 1010,9 hPa 0,0 l/m 13,3 km/h (3 Bft) W-SW 247 12,9 C 16,4 C
18.09.2012 09:31 16,7 C 79 % 1010,8 hPa 0,0 l/m 2,9 km/h (1 Bft) W-SW 247 13,0 C 16,7 C
18.09.2012 09:36 16,9 C 77 % 1010,8 hPa 0,0 l/m 18,4 km/h (3 Bft) W 270 12,8 C 16,9 C
18.09.2012 09:41 17,0 C 77 % 1010,9 hPa 0,0 l/m 1,8 km/h (1 Bft) W 270 12,9 C 17,0 C
18.09.2012 09:46 17,0 C 77 % 1010,9 hPa 0,0 l/m 2,9 km/h (1 Bft) W-SW 247 12,9 C 17,0 C
18.09.2012 09:51 16,9 C 77 % 1011,0 hPa 0,0 l/m 7,2 km/h (2 Bft) W 270 12,8 C 16,9 C
18.09.2012 09:56 16,9 C 77 % 1011,0 hPa 0,0 l/m 5,4 km/h (1 Bft) W-NW 292 12,8 C 16,9 C
18.09.2012 10:01 16,9 C 77 % 1010,9 hPa 0,0 l/m 4,0 km/h (1 Bft) W 270 12,8 C 16,9 C
18.09.2012 10:06 16,9 C 77 % 1010,9 hPa 0,0 l/m 7,9 km/h (2 Bft) NW 315 12,8 C 16,9 C
18.09.2012 10:11 17,0 C 77 % 1010,8 hPa 0,0 l/m 0,0 km/h (0 Bft) W-SW 247 12,9 C 17,0 C
18.09.2012 10:16 17,1 C 77 % 1010,9 hPa 0,0 l/m 0,0 km/h (0 Bft) W-NW 292 13,0 C 17,1 C
18.09.2012 10:21 17,2 C 77 % 1010,9 hPa 0,0 l/m 3,6 km/h (1 Bft) W-SW 247 13,1 C 17,2 C
18.09.2012 10:26 17,4 C 77 % 1010,9 hPa 0,0 l/m 7,2 km/h (2 Bft) W-SW 247 13,3 C 17,4 C
18.09.2012 10:31 17,5 C 76 % 1010,9 hPa 0,0 l/m 6,1 km/h (2 Bft) W-SW 247 13,2 C 17,5 C
18.09.2012 10:36 17,6 C 76 % 1010,9 hPa 0,0 l/m 4,0 km/h (1 Bft) W-SW 247 13,3 C 17,6 C
18.09.2012 10:41 17,8 C 75 % 1010,8 hPa 0,0 l/m 13,0 km/h (3 Bft) NW 315 13,3 C 17,8 C
18.09.2012 10:46 17,9 C 74 % 1010,9 hPa 0,0 l/m 1,8 km/h (1 Bft) W-SW 247 13,2 C 17,9 C
18.09.2012 10:51 18,1 C 73 % 1010,8 hPa 0,0 l/m 7,2 km/h (2 Bft) S-SW 202 13,2 C 18,1 C
18.09.2012 10:56 18,3 C 73 % 1010,7 hPa 0,0 l/m 0,0 km/h (0 Bft) W 270 13,4 C 18,3 C
18.09.2012 11:01 18,6 C 73 % 1010,7 hPa 0,0 l/m 2,5 km/h (1 Bft) NW 315 13,7 C 18,6 C
18.09.2012 11:06 18,8 C 72 % 1010,8 hPa 0,0 l/m 8,3 km/h (2 Bft) W-SW 247 13,6 C 18,8 C
18.09.2012 11:11 18,8 C 71 % 1010,7 hPa 0,0 l/m 7,6 km/h (2 Bft) NW 315 13,4 C 18,8 C
18.09.2012 11:16 18,9 C 71 % 1010,7 hPa 0,0 l/m 5,0 km/h (1 Bft) W-NW 292 13,5 C 18,9 C
18.09.2012 11:21 19,0 C 70 % 1010,6 hPa 0,0 l/m 6,8 km/h (2 Bft) W-SW 247 13,4 C 19,0 C
18.09.2012 11:26 19,2 C 70 % 1010,6 hPa 0,0 l/m 8,6 km/h (2 Bft) NW 315 13,6 C 19,2 C
18.09.2012 11:31 19,2 C 69 % 1010,6 hPa 0,0 l/m 9,4 km/h (2 Bft) N-NW 337 13,4 C 19,2 C
18.09.2012 11:36 19,3 C 68 % 1010,5 hPa 0,0 l/m 15,5 km/h (3 Bft) W-SW 247 13,2 C 19,3 C
18.09.2012 11:41 19,3 C 68 % 1010,5 hPa 0,0 l/m 2,2 km/h (1 Bft) W-SW 247 13,2 C 19,3 C
18.09.2012 11:46 19,4 C 68 % 1010,3 hPa 0,0 l/m 5,8 km/h (2 Bft) W-SW 247 13,3 C 19,4 C
18.09.2012 11:51 19,6 C 68 % 1010,3 hPa 0,0 l/m 4,7 km/h (1 Bft) S 180 13,5 C 19,6 C
18.09.2012 11:56 19,8 C 67 % 1010,2 hPa 0,0 l/m 3,6 km/h (1 Bft) W 270 13,5 C 19,8 C
18.09.2012 12:01 19,9 C 66 % 1010,3 hPa 0,0 l/m 7,9 km/h (2 Bft) W 270 13,4 C 19,9 C
18.09.2012 12:06 20,1 C 66 % 1010,2 hPa 0,0 l/m 21,6 km/h (4 Bft) W 270 13,5 C 20,1 C
18.09.2012 12:11 20,1 C 65 % 1010,2 hPa 0,0 l/m 5,8 km/h (2 Bft) SW 225 13,3 C 20,1 C
18.09.2012 12:16 20,3 C 65 % 1010,1 hPa 0,0 l/m 14,0 km/h (3 Bft) SW 225 13,5 C 20,3 C
18.09.2012 12:21 20,4 C 65 % 1010,1 hPa 0,0 l/m 10,8 km/h (2 Bft) S-SW 202 13,6 C 20,4 C
18.09.2012 12:26 20,6 C 65 % 1010,2 hPa 0,0 l/m 12,2 km/h (2 Bft) W 270 13,8 C 20,6 C
18.09.2012 12:31 20,6 C 64 % 1010,0 hPa 0,0 l/m 8,6 km/h (2 Bft) SW 225 13,5 C 20,6 C
18.09.2012 12:36 20,7 C 64 % 1010,0 hPa 0,0 l/m 15,1 km/h (3 Bft) W-SW 247 13,6 C 20,7 C
18.09.2012 12:41 20,8 C 63 % 1010,1 hPa 0,0 l/m 15,8 km/h (3 Bft) W-SW 247 13,5 C 20,8 C
18.09.2012 12:46 20,8 C 63 % 1009,9 hPa 0,0 l/m 16,6 km/h (3 Bft) W-SW 247 13,5 C 20,8 C
18.09.2012 12:51 20,8 C 61 % 1009,9 hPa 0,0 l/m 10,8 km/h (2 Bft) S-SW 202 13,0 C 20,8 C
18.09.2012 12:56 20,9 C 62 % 1009,9 hPa 0,0 l/m 10,4 km/h (2 Bft) W-SW 247 13,3 C 20,9 C
18.09.2012 13:01 20,8 C 62 % 1009,9 hPa 0,0 l/m 12,2 km/h (2 Bft) W-SW 247 13,2 C 20,8 C
18.09.2012 13:06 21,1 C 62 % 1009,8 hPa 0,0 l/m 10,8 km/h (2 Bft) SW 225 13,5 C 21,1 C
18.09.2012 13:11 21,2 C 61 % 1009,8 hPa 0,0 l/m 5,0 km/h (1 Bft) W-SW 247 13,4 C 21,2 C
18.09.2012 13:16 21,4 C 60 % 1009,7 hPa 0,0 l/m 6,8 km/h (2 Bft) W 270 13,3 C 21,4 C
18.09.2012 13:21 21,6 C 60 % 1009,6 hPa 0,0 l/m 9,4 km/h (2 Bft) W-SW 247 13,5 C 21,6 C
18.09.2012 13:26 21,8 C 59 % 1009,6 hPa 0,0 l/m 6,5 km/h (2 Bft) S-SW 202 13,4 C 21,8 C
18.09.2012 13:31 21,9 C 58 % 1009,5 hPa 0,0 l/m 7,6 km/h (2 Bft) W-NW 292 13,3 C 21,9 C
18.09.2012 13:36 22,2 C 57 % 1009,5 hPa 0,0 l/m 7,6 km/h (2 Bft) SW 225 13,3 C 22,2 C
18.09.2012 13:41 22,1 C 57 % 1009,4 hPa 0,0 l/m 13,7 km/h (3 Bft) SW 225 13,2 C 22,1 C
18.09.2012 13:46 22,1 C 56 % 1009,3 hPa 0,0 l/m 21,2 km/h (4 Bft) W-SW 247 12,9 C 22,1 C
18.09.2012 13:51 21,9 C 56 % 1009,4 hPa 0,0 l/m 20,5 km/h (4 Bft) W-SW 247 12,7 C 21,9 C
18.09.2012 13:56 21,8 C 56 % 1009,3 hPa 0,0 l/m 13,0 km/h (3 Bft) W 270 12,6 C 21,8 C
18.09.2012 14:01 21,8 C 56 % 1009,5 hPa 0,0 l/m 9,7 km/h (2 Bft) SW 225 12,6 C 21,8 C
18.09.2012 14:06 21,6 C 56 % 1009,5 hPa 0,0 l/m 19,4 km/h (3 Bft) W 270 12,4 C 21,6 C
18.09.2012 14:11 21,6 C 57 % 1009,5 hPa 0,0 l/m 10,8 km/h (2 Bft) W-SW 247 12,7 C 21,6 C
18.09.2012 14:16 21,6 C 57 % 1009,5 hPa 0,0 l/m 11,5 km/h (2 Bft) W-SW 247 12,7 C 21,6 C
18.09.2012 14:21 21,8 C 56 % 1009,4 hPa 0,0 l/m 11,2 km/h (2 Bft) W 270 12,6 C 21,8 C
18.09.2012 14:26 21,8 C 56 % 1009,4 hPa 0,0 l/m 2,2 km/h (1 Bft) W-NW 292 12,6 C 21,8 C
18.09.2012 14:31 21,8 C 57 % 1009,2 hPa 0,0 l/m 8,3 km/h (2 Bft) W-SW 247 12,9 C 21,8 C
18.09.2012 14:36 21,8 C 56 % 1009,3 hPa 0,0 l/m 10,4 km/h (2 Bft) W 270 12,6 C 21,8 C
18.09.2012 14:41 21,9 C 56 % 1009,2 hPa 0,0 l/m 13,0 km/h (3 Bft) W 270 12,7 C 21,9 C
18.09.2012 14:46 22,2 C 55 % 1009,1 hPa 0,0 l/m 11,2 km/h (2 Bft) W 270 12,7 C 22,2 C
18.09.2012 14:51 22,4 C 54 % 1009,3 hPa 0,0 l/m 14,0 km/h (3 Bft) W-SW 247 12,6 C 22,4 C
18.09.2012 14:56 22,6 C 53 % 1009,3 hPa 0,0 l/m 8,3 km/h (2 Bft) NW 315 12,5 C 22,6 C
18.09.2012 15:01 22,8 C 53 % 1009,2 hPa 0,0 l/m 8,3 km/h (2 Bft) W 270 12,7 C 22,8 C
18.09.2012 15:06 22,6 C 53 % 1009,1 hPa 0,0 l/m 10,8 km/h (2 Bft) N-NW 337 12,5 C 22,6 C
18.09.2012 15:11 22,4 C 53 % 1009,1 hPa 0,0 l/m 8,3 km/h (2 Bft) W-NW 292 12,3 C 22,4 C
18.09.2012 15:16 22,5 C 53 % 1009,1 hPa 0,0 l/m 4,0 km/h (1 Bft) W 270 12,4 C 22,5 C
18.09.2012 15:21 22,5 C 52 % 1009,1 hPa 0,0 l/m 12,6 km/h (3 Bft) W-SW 247 12,1 C 22,5 C
18.09.2012 15:26 22,5 C 52 % 1009,0 hPa 0,0 l/m 21,6 km/h (4 Bft) W-NW 292 12,1 C 22,5 C
18.09.2012 15:31 22,6 C 51 % 1009,1 hPa 0,0 l/m 11,5 km/h (2 Bft) NW 315 11,9 C 22,6 C
18.09.2012 15:36 22,8 C 51 % 1009,1 hPa 0,0 l/m 10,1 km/h (2 Bft) W-SW 247 12,1 C 22,8 C
18.09.2012 15:41 22,8 C 51 % 1009,0 hPa 0,0 l/m 8,3 km/h (2 Bft) NW 315 12,1 C 22,8 C
18.09.2012 15:46 22,6 C 51 % 1009,1 hPa 0,0 l/m 10,4 km/h (2 Bft) W 270 11,9 C 22,6 C
18.09.2012 15:51 22,3 C 51 % 1009,0 hPa 0,0 l/m 9,0 km/h (2 Bft) SW 225 11,7 C 22,3 C
18.09.2012 15:56 22,1 C 51 % 1009,1 hPa 0,0 l/m 8,3 km/h (2 Bft) W 270 11,5 C 22,1 C
18.09.2012 16:01 22,1 C 51 % 1009,1 hPa 0,0 l/m 6,8 km/h (2 Bft) W-NW 292 11,5 C 22,1 C
18.09.2012 16:06 22,2 C 50 % 1009,1 hPa 0,0 l/m 7,9 km/h (2 Bft) S-SW 202 11,3 C 22,2 C
18.09.2012 16:11 22,3 C 49 % 1009,0 hPa 0,0 l/m 9,0 km/h (2 Bft) W-SW 247 11,1 C 22,3 C
18.09.2012 16:16 22,1 C 50 % 1009,1 hPa 0,0 l/m 14,4 km/h (3 Bft) W 270 11,2 C 22,1 C
18.09.2012 16:21 21,9 C 49 % 1009,1 hPa 0,0 l/m 7,6 km/h (2 Bft) SW 225 10,7 C 21,9 C
18.09.2012 16:26 21,8 C 50 % 1009,2 hPa 0,0 l/m 6,5 km/h (2 Bft) W-NW 292 10,9 C 21,8 C
18.09.2012 16:31 21,6 C 50 % 1009,1 hPa 0,0 l/m 7,2 km/h (2 Bft) W-SW 247 10,7 C 21,6 C
18.09.2012 16:36 21,6 C 50 % 1009,1 hPa 0,0 l/m 5,4 km/h (1 Bft) W-SW 247 10,7 C 21,6 C
18.09.2012 16:41 21,4 C 51 % 1009,0 hPa 0,0 l/m 12,2 km/h (2 Bft) NW 315 10,8 C 21,4 C
18.09.2012 16:46 21,3 C 50 % 1009,0 hPa 0,0 l/m 14,4 km/h (3 Bft) W-NW 292 10,4 C 21,3 C
18.09.2012 16:51 21,1 C 51 % 1009,0 hPa 0,0 l/m 9,7 km/h (2 Bft) W 270 10,6 C 21,1 C
18.09.2012 16:56 20,9 C 51 % 1009,0 hPa 0,0 l/m 11,5 km/h (2 Bft) W 270 10,4 C 20,9 C
18.09.2012 17:01 20,9 C 51 % 1009,1 hPa 0,0 l/m 4,0 km/h (1 Bft) W-SW 247 10,4 C 20,9 C
18.09.2012 17:06 20,9 C 52 % 1009,0 hPa 0,0 l/m 8,3 km/h (2 Bft) W 270 10,7 C 20,9 C
18.09.2012 17:11 20,9 C 52 % 1009,1 hPa 0,0 l/m 10,1 km/h (2 Bft) W-SW 247 10,7 C 20,9 C
18.09.2012 17:16 20,9 C 53 % 1009,2 hPa 0,0 l/m 9,4 km/h (2 Bft) SW 225 11,0 C 20,9 C
18.09.2012 17:21 20,9 C 53 % 1009,1 hPa 0,0 l/m 9,7 km/h (2 Bft) W-SW 247 11,0 C 20,9 C
18.09.2012 17:26 20,9 C 52 % 1009,0 hPa 0,0 l/m 7,6 km/h (2 Bft) W-SW 247 10,7 C 20,9 C
18.09.2012 17:31 20,8 C 52 % 1009,0 hPa 0,0 l/m 14,4 km/h (3 Bft) W-SW 247 10,6 C 20,8 C
18.09.2012 17:36 20,8 C 52 % 1009,0 hPa 0,0 l/m 6,5 km/h (2 Bft) W-SW 247 10,6 C 20,8 C
18.09.2012 17:41 20,7 C 52 % 1008,9 hPa 0,0 l/m 5,4 km/h (1 Bft) W-SW 247 10,5 C 20,7 C
18.09.2012 17:46 20,5 C 52 % 1009,0 hPa 0,0 l/m 2,2 km/h (1 Bft) W 270 10,3 C 20,5 C
18.09.2012 17:51 20,4 C 52 % 1008,9 hPa 0,0 l/m 10,4 km/h (2 Bft) W-SW 247 10,2 C 20,4 C
18.09.2012 17:56 20,3 C 52 % 1008,9 hPa 0,0 l/m 5,8 km/h (2 Bft) W-SW 247 10,1 C 20,3 C
18.09.2012 18:01 20,3 C 53 % 1008,9 hPa 0,0 l/m 4,0 km/h (1 Bft) W-SW 247 10,4 C 20,3 C
18.09.2012 18:06 20,2 C 53 % 1008,9 hPa 0,0 l/m 8,6 km/h (2 Bft) W 270 10,3 C 20,2 C
18.09.2012 18:11 20,1 C 53 % 1008,8 hPa 0,0 l/m 9,7 km/h (2 Bft) W-SW 247 10,2 C 20,1 C
18.09.2012 18:16 20,1 C 54 % 1008,8 hPa 0,0 l/m 8,3 km/h (2 Bft) W-SW 247 10,5 C 20,1 C
18.09.2012 18:21 20,0 C 54 % 1008,8 hPa 0,0 l/m 12,2 km/h (2 Bft) W-SW 247 10,4 C 20,0 C
18.09.2012 18:26 19,9 C 54 % 1008,9 hPa 0,0 l/m 3,2 km/h (1 Bft) W 270 10,3 C 19,9 C
18.09.2012 18:31 19,9 C 55 % 1008,8 hPa 0,0 l/m 10,8 km/h (2 Bft) W-SW 247 10,6 C 19,9 C
18.09.2012 18:36 19,8 C 55 % 1008,8 hPa 0,0 l/m 9,0 km/h (2 Bft) W 270 10,5 C 19,8 C
18.09.2012 18:41 19,6 C 55 % 1009,0 hPa 0,0 l/m 5,4 km/h (1 Bft) SW 225 10,3 C 19,6 C
18.09.2012 18:46 19,5 C 56 % 1008,8 hPa 0,0 l/m 3,2 km/h (1 Bft) W-SW 247 10,5 C 19,5 C
18.09.2012 18:51 19,4 C 56 % 1008,9 hPa 0,0 l/m 9,7 km/h (2 Bft) W-SW 247 10,4 C 19,4 C
18.09.2012 18:56 19,3 C 57 % 1008,9 hPa 0,0 l/m 1,4 km/h (1 Bft) W-NW 292 10,6 C 19,3 C
18.09.2012 19:01 19,3 C 57 % 1008,9 hPa 0,0 l/m 7,6 km/h (2 Bft) W 270 10,6 C 19,3 C
18.09.2012 19:06 19,2 C 57 % 1008,9 hPa 0,0 l/m 7,2 km/h (2 Bft) W-SW 247 10,5 C 19,2 C
18.09.2012 19:11 19,2 C 57 % 1009,0 hPa 0,0 l/m 0,0 km/h (0 Bft) W 270 10,5 C 19,2 C
18.09.2012 19:16 19,1 C 57 % 1009,3 hPa 0,0 l/m 22,3 km/h (4 Bft) NW 315 10,4 C 19,1 C
18.09.2012 19:21 18,9 C 59 % 1009,5 hPa 0,0 l/m 6,1 km/h (2 Bft) W 270 10,7 C 18,9 C
18.09.2012 19:26 18,5 C 60 % 1009,6 hPa 0,0 l/m 11,5 km/h (2 Bft) W-NW 292 10,6 C 18,5 C
18.09.2012 19:31 18,1 C 61 % 1009,8 hPa 0,0 l/m 11,2 km/h (2 Bft) NW 315 10,5 C 18,1 C
18.09.2012 19:36 17,6 C 63 % 1009,9 hPa 0,0 l/m 8,6 km/h (2 Bft) W-NW 292 10,5 C 17,6 C
18.09.2012 19:41 17,2 C 64 % 1009,9 hPa 0,0 l/m 5,0 km/h (1 Bft) NW 315 10,3 C 17,2 C
18.09.2012 19:46 16,9 C 65 % 1009,9 hPa 0,0 l/m 7,2 km/h (2 Bft) NW 315 10,3 C 16,9 C
18.09.2012 19:51 16,7 C 66 % 1010,0 hPa 0,0 l/m 6,1 km/h (2 Bft) W-NW 292 10,3 C 16,7 C
18.09.2012 19:56 16,6 C 67 % 1010,3 hPa 0,0 l/m 12,6 km/h (3 Bft) W 270 10,4 C 16,6 C
18.09.2012 20:01 16,4 C 68 % 1010,2 hPa 0,0 l/m 13,7 km/h (3 Bft) W-NW 292 10,5 C 16,4 C
18.09.2012 20:06 16,3 C 69 % 1010,3 hPa 0,0 l/m 4,0 km/h (1 Bft) W-NW 292 10,6 C 16,3 C
18.09.2012 20:11 16,2 C 69 % 1010,3 hPa 0,0 l/m 9,7 km/h (2 Bft) W-NW 292 10,5 C 16,2 C
18.09.2012 20:16 16,1 C 70 % 1010,6 hPa 0,0 l/m 17,3 km/h (3 Bft) W-NW 292 10,6 C 16,1 C
18.09.2012 20:21 15,9 C 70 % 1010,3 hPa 0,0 l/m 17,3 km/h (3 Bft) NW 315 10,4 C 15,9 C
18.09.2012 20:26 15,9 C 71 % 1010,4 hPa 0,0 l/m 10,8 km/h (2 Bft) NW 315 10,6 C 15,9 C
18.09.2012 20:31 15,8 C 71 % 1010,5 hPa 0,0 l/m 13,0 km/h (3 Bft) W-NW 292 10,6 C 15,8 C
18.09.2012 20:36 15,8 C 70 % 1010,6 hPa 0,0 l/m 11,2 km/h (2 Bft) W 270 10,3 C 15,8 C
18.09.2012 20:41 15,6 C 71 % 1010,8 hPa 0,0 l/m 3,2 km/h (1 Bft) W-NW 292 10,4 C 15,6 C
18.09.2012 20:46 15,6 C 72 % 1010,5 hPa 0,0 l/m 5,8 km/h (2 Bft) NW 315 10,6 C 15,6 C
18.09.2012 20:51 15,4 C 72 % 1010,4 hPa 0,0 l/m 2,9 km/h (1 Bft) NW 315 10,4 C 15,4 C
18.09.2012 20:56 15,3 C 73 % 1010,5 hPa 0,0 l/m 19,4 km/h (3 Bft) W-NW 292 10,5 C 15,3 C
18.09.2012 21:01 15,2 C 73 % 1010,7 hPa 0,0 l/m 2,2 km/h (1 Bft) W 270 10,4 C 15,2 C
18.09.2012 21:06 15,1 C 75 % 1010,8 hPa 0,0 l/m 14,4 km/h (3 Bft) W-NW 292 10,7 C 15,1 C
18.09.2012 21:11 14,9 C 75 % 1010,7 hPa 0,0 l/m 9,4 km/h (2 Bft) W-NW 292 10,5 C 14,9 C
18.09.2012 21:16 14,9 C 76 % 1010,6 hPa 0,0 l/m 8,3 km/h (2 Bft) W-NW 292 10,7 C 14,9 C
18.09.2012 21:21 14,9 C 77 % 1010,4 hPa 0,0 l/m 6,1 km/h (2 Bft) W-NW 292 10,9 C 14,9 C
18.09.2012 21:26 14,8 C 77 % 1010,7 hPa 0,0 l/m 5,8 km/h (2 Bft) SW 225 10,8 C 14,8 C
18.09.2012 21:31 14,6 C 78 % 1010,8 hPa 0,0 l/m 6,5 km/h (2 Bft) NW 315 10,8 C 14,6 C
18.09.2012 21:36 14,6 C 79 % 1010,7 hPa 0,0 l/m 5,0 km/h (1 Bft) NW 315 11,0 C 14,6 C
18.09.2012 21:41 14,5 C 80 % 1010,6 hPa 0,0 l/m 5,8 km/h (2 Bft) W-SW 247 11,1 C 14,5 C
18.09.2012 21:46 14,4 C 80 % 1010,6 hPa 0,0 l/m 4,7 km/h (1 Bft) NW 315 11,0 C 14,4 C
18.09.2012 21:51 14,4 C 81 % 1010,8 hPa 0,5 l/m 7,6 km/h (2 Bft) W-NW 292 11,2 C 14,4 C
18.09.2012 21:56 14,3 C 81 % 1010,9 hPa 0,0 l/m 6,1 km/h (2 Bft) W-NW 292 11,1 C 14,3 C
18.09.2012 22:01 14,2 C 81 % 1010,8 hPa 0,0 l/m 5,0 km/h (1 Bft) W-NW 292 11,0 C 14,2 C
18.09.2012 22:06 14,2 C 82 % 1010,9 hPa 0,0 l/m 2,2 km/h (1 Bft) W-NW 292 11,2 C 14,2 C
18.09.2012 22:11 14,2 C 83 % 1010,9 hPa 0,0 l/m 5,0 km/h (1 Bft) W-NW 292 11,4 C 14,2 C
18.09.2012 22:16 14,1 C 82 % 1010,9 hPa 0,0 l/m 1,4 km/h (1 Bft) W-NW 292 11,1 C 14,1 C
18.09.2012 22:21 14,1 C 83 % 1010,9 hPa 0,0 l/m 2,2 km/h (1 Bft) W-NW 292 11,3 C 14,1 C
18.09.2012 22:26 14,1 C 83 % 1010,7 hPa 0,0 l/m 6,8 km/h (2 Bft) W-NW 292 11,3 C 14,1 C
18.09.2012 22:31 14,1 C 83 % 1010,8 hPa 0,0 l/m 3,6 km/h (1 Bft) W-NW 292 11,3 C 14,1 C
18.09.2012 22:36 14,1 C 83 % 1010,8 hPa 0,0 l/m 4,7 km/h (1 Bft) NW 315 11,3 C 14,1 C
18.09.2012 22:41 14,0 C 84 % 1011,0 hPa 0,0 l/m 5,0 km/h (1 Bft) W-NW 292 11,3 C 14,0 C
18.09.2012 22:46 13,9 C 84 % 1011,1 hPa 0,0 l/m 2,2 km/h (1 Bft) SW 225 11,2 C 13,9 C
18.09.2012 22:51 13,9 C 84 % 1011,2 hPa 0,0 l/m 6,1 km/h (2 Bft) W-SW 247 11,2 C 13,9 C
18.09.2012 22:56 13,9 C 84 % 1011,2 hPa 0,0 l/m 2,9 km/h (1 Bft) W-NW 292 11,2 C 13,9 C
18.09.2012 23:01 13,9 C 84 % 1011,3 hPa 0,0 l/m 2,9 km/h (1 Bft) W-NW 292 11,2 C 13,9 C
18.09.2012 23:06 13,9 C 84 % 1011,2 hPa 0,0 l/m 4,7 km/h (1 Bft) W-SW 247 11,2 C 13,9 C
18.09.2012 23:11 13,9 C 84 % 1011,2 hPa 0,0 l/m 1,4 km/h (1 Bft) W-NW 292 11,2 C 13,9 C
18.09.2012 23:16 13,9 C 84 % 1011,3 hPa 0,0 l/m 6,1 km/h (2 Bft) W 270 11,2 C 13,9 C
18.09.2012 23:21 13,8 C 84 % 1011,0 hPa 0,0 l/m 5,0 km/h (1 Bft) W 270 11,1 C 13,8 C
18.09.2012 23:26 13,8 C 84 % 1011,0 hPa 0,0 l/m 2,5 km/h (1 Bft) W-NW 292 11,1 C 13,8 C
18.09.2012 23:31 13,8 C 84 % 1011,1 hPa 0,0 l/m 0,0 km/h (0 Bft) W-SW 247 11,1 C 13,8 C
18.09.2012 23:36 13,7 C 84 % 1011,1 hPa 0,0 l/m 6,1 km/h (2 Bft) W-NW 292 11,0 C 13,7 C
18.09.2012 23:41 13,6 C 84 % 1011,1 hPa 0,0 l/m 7,2 km/h (2 Bft) NW 315 10,9 C 13,6 C
18.09.2012 23:46 13,6 C 83 % 1011,1 hPa 0,0 l/m 5,8 km/h (2 Bft) W-NW 292 10,8 C 13,6 C
18.09.2012 23:51 13,5 C 82 % 1011,2 hPa 0,0 l/m 4,0 km/h (1 Bft) NW 315 10,5 C 13,5 C
18.09.2012 23:56 13,5 C 82 % 1011,2 hPa 0,0 l/m 6,1 km/h (2 Bft) W-NW 292 10,5 C 13,5 C
_ Min-Zeit 05:51 16:11 18:11 - 00:01 - - 05:31 05:51
Minimum _ 11,1 C 49 % 1008,8 hPa - 0,0 km/h (0 Bft) - - 9,1 C 11,1 C
_ Max-Zeit 15:01 06:11 00:31 21:51 19:16 - - 12:26 15:01
Maximum _ 22,8 C 89 % 1014,2 hPa 0,5 l/m 22,3 km/h
NW (4 Bft)
- - 13,8 C 22,8 C
Durchschnitt _ 16,2 C 74 % 1010,8 hPa #0,5 l/m 5,8 km/h (2 Bft) W-SW - 11,1 C 16,2 C
(c) by David Heller